sensor_id;sensor_type;location;lat;lon;timestamp;P1;durP1;ratioP1;P2;durP2;ratioP2
10481;SDS011;5288;42.334;23.876;2023-09-18T00:02:15;12.87;;;11.00;;
10481;SDS011;5288;42.334;23.876;2023-09-18T00:04:42;11.37;;;10.20;;
10481;SDS011;5288;42.334;23.876;2023-09-18T00:07:09;10.73;;;9.70;;
10481;SDS011;5288;42.334;23.876;2023-09-18T00:09:36;10.63;;;9.53;;
10481;SDS011;5288;42.334;23.876;2023-09-18T00:12:04;10.87;;;9.57;;
10481;SDS011;5288;42.334;23.876;2023-09-18T00:14:33;11.53;;;10.40;;
10481;SDS011;5288;42.334;23.876;2023-09-18T00:17:00;12.20;;;11.00;;
10481;SDS011;5288;42.334;23.876;2023-09-18T00:19:27;11.83;;;10.63;;
10481;SDS011;5288;42.334;23.876;2023-09-18T00:21:54;23.47;;;11.50;;
10481;SDS011;5288;42.334;23.876;2023-09-18T00:24:21;13.20;;;11.37;;
10481;SDS011;5288;42.334;23.876;2023-09-18T00:26:50;13.87;;;10.50;;
10481;SDS011;5288;42.334;23.876;2023-09-18T00:29:18;14.80;;;12.00;;
10481;SDS011;5288;42.334;23.876;2023-09-18T00:31:46;11.97;;;10.23;;
10481;SDS011;5288;42.334;23.876;2023-09-18T00:34:13;11.70;;;10.60;;
10481;SDS011;5288;42.334;23.876;2023-09-18T00:36:40;11.30;;;10.20;;
10481;SDS011;5288;42.334;23.876;2023-09-18T00:39:07;11.07;;;9.90;;
10481;SDS011;5288;42.334;23.876;2023-09-18T00:41:34;12.53;;;11.23;;
10481;SDS011;5288;42.334;23.876;2023-09-18T00:44:02;12.43;;;10.97;;
10481;SDS011;5288;42.334;23.876;2023-09-18T00:46:30;14.13;;;11.30;;
10481;SDS011;5288;42.334;23.876;2023-09-18T00:48:59;13.63;;;12.30;;
10481;SDS011;5288;42.334;23.876;2023-09-18T00:51:26;13.63;;;11.83;;
10481;SDS011;5288;42.334;23.876;2023-09-18T00:53:53;15.00;;;11.30;;
10481;SDS011;5288;42.334;23.876;2023-09-18T00:56:21;12.73;;;11.47;;
10481;SDS011;5288;42.334;23.876;2023-09-18T00:58:48;15.20;;;13.67;;
10481;SDS011;5288;42.334;23.876;2023-09-18T01:01:16;13.60;;;12.40;;
10481;SDS011;5288;42.334;23.876;2023-09-18T01:03:48;13.47;;;12.17;;
10481;SDS011;5288;42.334;23.876;2023-09-18T01:06:17;16.80;;;13.50;;
10481;SDS011;5288;42.334;23.876;2023-09-18T01:08:46;14.73;;;13.37;;
10481;SDS011;5288;42.334;23.876;2023-09-18T01:11:19;19.07;;;15.80;;
10481;SDS011;5288;42.334;23.876;2023-09-18T01:13:54;17.07;;;15.43;;
10481;SDS011;5288;42.334;23.876;2023-09-18T01:16:31;16.97;;;15.23;;
10481;SDS011;5288;42.334;23.876;2023-09-18T01:19:01;14.67;;;13.13;;
10481;SDS011;5288;42.334;23.876;2023-09-18T01:21:30;17.37;;;15.57;;
10481;SDS011;5288;42.334;23.876;2023-09-18T01:23:58;18.83;;;16.60;;
10481;SDS011;5288;42.334;23.876;2023-09-18T01:26:25;18.40;;;16.57;;
10481;SDS011;5288;42.334;23.876;2023-09-18T01:28:52;17.13;;;15.43;;
10481;SDS011;5288;42.334;23.876;2023-09-18T01:31:19;16.17;;;14.50;;
10481;SDS011;5288;42.334;23.876;2023-09-18T01:33:46;19.80;;;14.83;;
10481;SDS011;5288;42.334;23.876;2023-09-18T01:36:15;18.83;;;16.87;;
10481;SDS011;5288;42.334;23.876;2023-09-18T01:38:45;16.10;;;14.70;;
10481;SDS011;5288;42.334;23.876;2023-09-18T01:41:14;16.13;;;14.53;;
10481;SDS011;5288;42.334;23.876;2023-09-18T01:43:41;14.93;;;13.43;;
10481;SDS011;5288;42.334;23.876;2023-09-18T01:46:08;15.17;;;12.93;;
10481;SDS011;5288;42.334;23.876;2023-09-18T01:48:36;14.77;;;13.37;;
10481;SDS011;5288;42.334;23.876;2023-09-18T01:51:03;14.23;;;12.03;;
10481;SDS011;5288;42.334;23.876;2023-09-18T01:53:30;13.27;;;11.17;;
10481;SDS011;5288;42.334;23.876;2023-09-18T01:55:57;14.33;;;10.87;;
10481;SDS011;5288;42.334;23.876;2023-09-18T01:58:25;15.80;;;10.70;;
10481;SDS011;5288;42.334;23.876;2023-09-18T02:00:52;14.17;;;11.07;;
10481;SDS011;5288;42.334;23.876;2023-09-18T02:03:19;14.43;;;10.90;;
10481;SDS011;5288;42.334;23.876;2023-09-18T02:05:46;16.40;;;11.53;;
10481;SDS011;5288;42.334;23.876;2023-09-18T02:08:13;17.47;;;12.90;;
10481;SDS011;5288;42.334;23.876;2023-09-18T02:10:40;16.97;;;12.73;;
10481;SDS011;5288;42.334;23.876;2023-09-18T02:13:07;15.17;;;11.10;;
10481;SDS011;5288;42.334;23.876;2023-09-18T02:15:37;12.53;;;11.33;;
10481;SDS011;5288;42.334;23.876;2023-09-18T02:18:04;15.17;;;10.27;;
10481;SDS011;5288;42.334;23.876;2023-09-18T02:20:31;12.33;;;10.87;;
10481;SDS011;5288;42.334;23.876;2023-09-18T02:23:06;12.33;;;11.20;;
10481;SDS011;5288;42.334;23.876;2023-09-18T02:25:33;13.87;;;10.07;;
10481;SDS011;5288;42.334;23.876;2023-09-18T02:28:00;12.73;;;10.13;;
10481;SDS011;5288;42.334;23.876;2023-09-18T02:30:27;11.40;;;9.53;;
10481;SDS011;5288;42.334;23.876;2023-09-18T02:32:56;11.43;;;10.00;;
10481;SDS011;5288;42.334;23.876;2023-09-18T02:35:23;13.13;;;11.13;;
10481;SDS011;5288;42.334;23.876;2023-09-18T02:37:49;13.07;;;8.87;;
10481;SDS011;5288;42.334;23.876;2023-09-18T02:40:16;14.90;;;10.03;;
10481;SDS011;5288;42.334;23.876;2023-09-18T02:42:43;13.27;;;10.90;;
10481;SDS011;5288;42.334;23.876;2023-09-18T02:45:10;11.27;;;10.17;;
10481;SDS011;5288;42.334;23.876;2023-09-18T02:47:37;13.93;;;11.30;;
10481;SDS011;5288;42.334;23.876;2023-09-18T02:50:08;14.07;;;11.97;;
10481;SDS011;5288;42.334;23.876;2023-09-18T02:52:36;13.37;;;8.63;;
10481;SDS011;5288;42.334;23.876;2023-09-18T02:55:03;12.30;;;10.30;;
10481;SDS011;5288;42.334;23.876;2023-09-18T02:57:30;14.73;;;10.93;;
10481;SDS011;5288;42.334;23.876;2023-09-18T02:59:57;12.77;;;10.37;;
10481;SDS011;5288;42.334;23.876;2023-09-18T03:02:24;12.20;;;10.97;;
10481;SDS011;5288;42.334;23.876;2023-09-18T03:04:50;12.40;;;11.00;;
10481;SDS011;5288;42.334;23.876;2023-09-18T03:07:19;12.73;;;11.30;;
10481;SDS011;5288;42.334;23.876;2023-09-18T03:09:46;13.37;;;11.97;;
10481;SDS011;5288;42.334;23.876;2023-09-18T03:12:13;15.70;;;11.33;;
10481;SDS011;5288;42.334;23.876;2023-09-18T03:14:40;16.73;;;11.77;;
10481;SDS011;5288;42.334;23.876;2023-09-18T03:17:07;14.47;;;11.67;;
10481;SDS011;5288;42.334;23.876;2023-09-18T03:19:35;13.77;;;11.20;;
10481;SDS011;5288;42.334;23.876;2023-09-18T03:22:02;12.37;;;11.10;;
10481;SDS011;5288;42.334;23.876;2023-09-18T03:24:31;13.27;;;11.77;;
10481;SDS011;5288;42.334;23.876;2023-09-18T03:26:58;15.63;;;11.43;;
10481;SDS011;5288;42.334;23.876;2023-09-18T03:29:25;14.80;;;11.80;;
10481;SDS011;5288;42.334;23.876;2023-09-18T03:31:52;12.93;;;11.63;;
10481;SDS011;5288;42.334;23.876;2023-09-18T03:34:21;12.90;;;11.60;;
10481;SDS011;5288;42.334;23.876;2023-09-18T03:36:51;15.03;;;12.50;;
10481;SDS011;5288;42.334;23.876;2023-09-18T03:39:18;12.63;;;10.97;;
10481;SDS011;5288;42.334;23.876;2023-09-18T03:41:46;15.70;;;11.40;;
10481;SDS011;5288;42.334;23.876;2023-09-18T03:44:13;13.27;;;11.73;;
10481;SDS011;5288;42.334;23.876;2023-09-18T03:46:41;12.57;;;11.20;;
10481;SDS011;5288;42.334;23.876;2023-09-18T03:49:08;13.40;;;12.00;;
10481;SDS011;5288;42.334;23.876;2023-09-18T03:51:35;13.83;;;12.30;;
10481;SDS011;5288;42.334;23.876;2023-09-18T03:54:02;16.13;;;11.87;;
10481;SDS011;5288;42.334;23.876;2023-09-18T03:56:29;16.77;;;10.37;;
10481;SDS011;5288;42.334;23.876;2023-09-18T03:58:58;23.30;;;11.03;;
10481;SDS011;5288;42.334;23.876;2023-09-18T04:01:26;11.90;;;10.00;;
10481;SDS011;5288;42.334;23.876;2023-09-18T04:03:53;36.37;;;11.53;;
10481;SDS011;5288;42.334;23.876;2023-09-18T04:06:21;15.93;;;11.57;;
10481;SDS011;5288;42.334;23.876;2023-09-18T04:08:49;14.43;;;12.60;;
10481;SDS011;5288;42.334;23.876;2023-09-18T04:11:16;14.50;;;12.80;;
10481;SDS011;5288;42.334;23.876;2023-09-18T04:13:45;27.07;;;13.67;;
10481;SDS011;5288;42.334;23.876;2023-09-18T04:16:13;19.57;;;12.67;;
10481;SDS011;5288;42.334;23.876;2023-09-18T04:18:42;13.67;;;11.13;;
10481;SDS011;5288;42.334;23.876;2023-09-18T04:21:09;14.90;;;9.40;;
10481;SDS011;5288;42.334;23.876;2023-09-18T04:23:36;11.43;;;9.13;;
10481;SDS011;5288;42.334;23.876;2023-09-18T04:26:03;12.13;;;10.23;;
10481;SDS011;5288;42.334;23.876;2023-09-18T04:28:30;13.37;;;8.83;;
10481;SDS011;5288;42.334;23.876;2023-09-18T04:30:57;12.60;;;10.23;;
10481;SDS011;5288;42.334;23.876;2023-09-18T04:33:26;16.67;;;10.60;;
10481;SDS011;5288;42.334;23.876;2023-09-18T04:35:54;19.43;;;11.60;;
10481;SDS011;5288;42.334;23.876;2023-09-18T04:38:21;13.37;;;11.77;;
10481;SDS011;5288;42.334;23.876;2023-09-18T04:40:48;13.83;;;11.17;;
10481;SDS011;5288;42.334;23.876;2023-09-18T04:43:15;13.03;;;11.60;;
10481;SDS011;5288;42.334;23.876;2023-09-18T04:45:42;12.40;;;11.20;;
10481;SDS011;5288;42.334;23.876;2023-09-18T04:48:09;13.27;;;11.17;;
10481;SDS011;5288;42.334;23.876;2023-09-18T04:50:37;15.07;;;10.83;;
10481;SDS011;5288;42.334;23.876;2023-09-18T04:53:04;13.00;;;11.03;;
10481;SDS011;5288;42.334;23.876;2023-09-18T04:55:31;14.60;;;10.63;;
10481;SDS011;5288;42.334;23.876;2023-09-18T04:57:58;16.20;;;11.30;;
10481;SDS011;5288;42.334;23.876;2023-09-18T05:00:25;16.47;;;11.40;;
10481;SDS011;5288;42.334;23.876;2023-09-18T05:02:54;13.50;;;10.90;;
10481;SDS011;5288;42.334;23.876;2023-09-18T05:05:21;37.13;;;15.40;;
10481;SDS011;5288;42.334;23.876;2023-09-18T05:07:50;11.43;;;10.20;;
10481;SDS011;5288;42.334;23.876;2023-09-18T05:10:17;12.13;;;10.63;;
10481;SDS011;5288;42.334;23.876;2023-09-18T05:12:44;16.67;;;11.57;;
10481;SDS011;5288;42.334;23.876;2023-09-18T05:15:11;12.63;;;11.13;;
10481;SDS011;5288;42.334;23.876;2023-09-18T05:17:39;19.77;;;15.47;;
10481;SDS011;5288;42.334;23.876;2023-09-18T05:20:09;17.20;;;11.73;;
10481;SDS011;5288;42.334;23.876;2023-09-18T05:22:39;10.83;;;9.73;;
10481;SDS011;5288;42.334;23.876;2023-09-18T05:25:09;10.50;;;9.50;;
10481;SDS011;5288;42.334;23.876;2023-09-18T05:27:36;14.10;;;9.60;;
10481;SDS011;5288;42.334;23.876;2023-09-18T05:30:10;14.27;;;10.13;;
10481;SDS011;5288;42.334;23.876;2023-09-18T05:32:40;13.50;;;8.77;;
10481;SDS011;5288;42.334;23.876;2023-09-18T05:35:07;10.60;;;8.43;;
10481;SDS011;5288;42.334;23.876;2023-09-18T05:37:37;30.73;;;12.50;;
10481;SDS011;5288;42.334;23.876;2023-09-18T05:40:05;20.60;;;9.77;;
10481;SDS011;5288;42.334;23.876;2023-09-18T05:42:36;12.57;;;9.40;;
10481;SDS011;5288;42.334;23.876;2023-09-18T05:45:03;12.47;;;9.17;;
10481;SDS011;5288;42.334;23.876;2023-09-18T05:47:32;32.10;;;12.27;;
10481;SDS011;5288;42.334;23.876;2023-09-18T05:50:00;13.73;;;9.43;;
10481;SDS011;5288;42.334;23.876;2023-09-18T05:52:30;11.77;;;9.33;;
10481;SDS011;5288;42.334;23.876;2023-09-18T05:54:57;15.07;;;8.23;;
10481;SDS011;5288;42.334;23.876;2023-09-18T05:57:24;11.30;;;7.77;;
10481;SDS011;5288;42.334;23.876;2023-09-18T05:59:53;10.20;;;7.60;;
10481;SDS011;5288;42.334;23.876;2023-09-18T06:02:23;8.47;;;6.80;;
10481;SDS011;5288;42.334;23.876;2023-09-18T06:04:53;16.47;;;7.83;;
10481;SDS011;5288;42.334;23.876;2023-09-18T06:07:23;11.23;;;7.17;;
10481;SDS011;5288;42.334;23.876;2023-09-18T06:09:50;10.77;;;6.87;;
10481;SDS011;5288;42.334;23.876;2023-09-18T06:12:17;10.30;;;6.20;;
10481;SDS011;5288;42.334;23.876;2023-09-18T06:14:44;11.17;;;6.13;;
10481;SDS011;5288;42.334;23.876;2023-09-18T06:17:14;10.07;;;6.20;;
10481;SDS011;5288;42.334;23.876;2023-09-18T06:19:42;9.23;;;6.30;;
10481;SDS011;5288;42.334;23.876;2023-09-18T06:22:09;9.87;;;6.47;;
10481;SDS011;5288;42.334;23.876;2023-09-18T06:24:36;9.33;;;7.57;;
10481;SDS011;5288;42.334;23.876;2023-09-18T06:27:03;9.97;;;6.63;;
10481;SDS011;5288;42.334;23.876;2023-09-18T06:29:31;8.67;;;6.17;;
10481;SDS011;5288;42.334;23.876;2023-09-18T06:31:58;7.27;;;6.10;;
10481;SDS011;5288;42.334;23.876;2023-09-18T06:34:27;14.77;;;5.90;;
10481;SDS011;5288;42.334;23.876;2023-09-18T06:36:54;11.27;;;6.20;;
10481;SDS011;5288;42.334;23.876;2023-09-18T06:39:21;8.00;;;5.97;;
10481;SDS011;5288;42.334;23.876;2023-09-18T06:41:49;7.43;;;6.10;;
10481;SDS011;5288;42.334;23.876;2023-09-18T06:44:16;12.27;;;6.23;;
10481;SDS011;5288;42.334;23.876;2023-09-18T06:46:43;16.97;;;7.37;;
10481;SDS011;5288;42.334;23.876;2023-09-18T06:49:10;10.30;;;6.27;;
10481;SDS011;5288;42.334;23.876;2023-09-18T06:51:39;10.83;;;5.27;;
10481;SDS011;5288;42.334;23.876;2023-09-18T06:54:06;21.13;;;6.97;;
10481;SDS011;5288;42.334;23.876;2023-09-18T06:56:33;9.43;;;5.53;;
10481;SDS011;5288;42.334;23.876;2023-09-18T06:59:00;5.60;;;4.93;;
10481;SDS011;5288;42.334;23.876;2023-09-18T07:01:27;10.30;;;5.27;;
10481;SDS011;5288;42.334;23.876;2023-09-18T07:03:56;17.73;;;7.10;;
10481;SDS011;5288;42.334;23.876;2023-09-18T07:06:25;9.00;;;5.47;;
10481;SDS011;5288;42.334;23.876;2023-09-18T07:08:53;8.93;;;5.17;;
10481;SDS011;5288;42.334;23.876;2023-09-18T07:11:20;9.57;;;5.47;;
10481;SDS011;5288;42.334;23.876;2023-09-18T07:13:47;7.00;;;5.43;;
10481;SDS011;5288;42.334;23.876;2023-09-18T07:16:14;8.17;;;5.20;;
10481;SDS011;5288;42.334;23.876;2023-09-18T07:18:41;9.07;;;5.13;;
10481;SDS011;5288;42.334;23.876;2023-09-18T07:21:08;14.03;;;6.57;;
10481;SDS011;5288;42.334;23.876;2023-09-18T07:23:35;8.17;;;6.40;;
10481;SDS011;5288;42.334;23.876;2023-09-18T07:26:04;8.23;;;6.17;;
10481;SDS011;5288;42.334;23.876;2023-09-18T07:28:31;7.83;;;5.83;;
10481;SDS011;5288;42.334;23.876;2023-09-18T07:31:03;5.80;;;5.27;;
10481;SDS011;5288;42.334;23.876;2023-09-18T07:33:31;6.07;;;5.47;;
10481;SDS011;5288;42.334;23.876;2023-09-18T07:35:58;16.53;;;7.13;;
10481;SDS011;5288;42.334;23.876;2023-09-18T07:38:25;8.93;;;5.63;;
10481;SDS011;5288;42.334;23.876;2023-09-18T07:40:52;6.30;;;5.07;;
10481;SDS011;5288;42.334;23.876;2023-09-18T07:43:21;6.67;;;5.33;;
10481;SDS011;5288;42.334;23.876;2023-09-18T07:45:48;10.37;;;5.57;;
10481;SDS011;5288;42.334;23.876;2023-09-18T07:48:16;7.40;;;5.37;;
10481;SDS011;5288;42.334;23.876;2023-09-18T07:50:45;9.33;;;5.90;;
10481;SDS011;5288;42.334;23.876;2023-09-18T07:53:14;6.93;;;5.93;;
10481;SDS011;5288;42.334;23.876;2023-09-18T07:55:41;5.73;;;5.23;;
10481;SDS011;5288;42.334;23.876;2023-09-18T07:58:09;9.40;;;6.17;;
10481;SDS011;5288;42.334;23.876;2023-09-18T08:00:38;11.73;;;6.67;;
10481;SDS011;5288;42.334;23.876;2023-09-18T08:03:05;9.90;;;5.73;;
10481;SDS011;5288;42.334;23.876;2023-09-18T08:05:32;6.43;;;5.80;;
10481;SDS011;5288;42.334;23.876;2023-09-18T08:07:59;8.03;;;5.77;;
10481;SDS011;5288;42.334;23.876;2023-09-18T08:10:26;8.57;;;6.10;;
10481;SDS011;5288;42.334;23.876;2023-09-18T08:12:53;7.10;;;6.10;;
10481;SDS011;5288;42.334;23.876;2023-09-18T08:15:21;8.90;;;5.80;;
10481;SDS011;5288;42.334;23.876;2023-09-18T08:17:49;9.53;;;6.30;;
10481;SDS011;5288;42.334;23.876;2023-09-18T08:20:18;17.00;;;6.27;;
10481;SDS011;5288;42.334;23.876;2023-09-18T08:22:45;13.87;;;5.70;;
10481;SDS011;5288;42.334;23.876;2023-09-18T08:25:13;12.73;;;6.97;;
10481;SDS011;5288;42.334;23.876;2023-09-18T08:27:41;9.13;;;6.53;;
10481;SDS011;5288;42.334;23.876;2023-09-18T08:30:09;7.73;;;5.90;;
10481;SDS011;5288;42.334;23.876;2023-09-18T08:32:38;8.00;;;5.87;;
10481;SDS011;5288;42.334;23.876;2023-09-18T08:35:07;6.77;;;5.87;;
10481;SDS011;5288;42.334;23.876;2023-09-18T08:37:35;12.00;;;5.50;;
10481;SDS011;5288;42.334;23.876;2023-09-18T08:40:02;6.90;;;5.60;;
10481;SDS011;5288;42.334;23.876;2023-09-18T08:42:35;7.93;;;5.37;;
10481;SDS011;5288;42.334;23.876;2023-09-18T08:45:05;6.73;;;5.70;;
10481;SDS011;5288;42.334;23.876;2023-09-18T08:47:37;5.60;;;5.10;;
10481;SDS011;5288;42.334;23.876;2023-09-18T08:50:07;7.77;;;5.13;;
10481;SDS011;5288;42.334;23.876;2023-09-18T08:52:35;5.17;;;4.40;;
10481;SDS011;5288;42.334;23.876;2023-09-18T08:55:03;7.07;;;5.60;;
10481;SDS011;5288;42.334;23.876;2023-09-18T08:57:31;6.63;;;5.10;;
10481;SDS011;5288;42.334;23.876;2023-09-18T09:00:00;23.30;;;7.33;;
10481;SDS011;5288;42.334;23.876;2023-09-18T09:02:31;6.40;;;4.50;;
10481;SDS011;5288;42.334;23.876;2023-09-18T09:04:59;8.33;;;4.70;;
10481;SDS011;5288;42.334;23.876;2023-09-18T09:07:27;9.40;;;4.80;;
10481;SDS011;5288;42.334;23.876;2023-09-18T09:09:56;6.80;;;4.30;;
10481;SDS011;5288;42.334;23.876;2023-09-18T09:15:22;9.97;;;4.60;;
10481;SDS011;5288;42.334;23.876;2023-09-18T09:17:52;9.60;;;5.60;;
10481;SDS011;5288;42.334;23.876;2023-09-18T09:20:27;7.63;;;5.00;;
10481;SDS011;5288;42.334;23.876;2023-09-18T09:22:59;7.47;;;6.13;;
10481;SDS011;5288;42.334;23.876;2023-09-18T09:25:27;5.90;;;4.50;;
10481;SDS011;5288;42.334;23.876;2023-09-18T09:27:57;7.27;;;4.73;;
10481;SDS011;5288;42.334;23.876;2023-09-18T09:30:25;6.83;;;4.90;;
10481;SDS011;5288;42.334;23.876;2023-09-18T09:32:55;7.40;;;4.90;;
10481;SDS011;5288;42.334;23.876;2023-09-18T09:35:24;6.50;;;5.70;;
10481;SDS011;5288;42.334;23.876;2023-09-18T09:37:54;6.27;;;5.27;;
10481;SDS011;5288;42.334;23.876;2023-09-18T09:40:26;6.93;;;4.97;;
10481;SDS011;5288;42.334;23.876;2023-09-18T09:42:54;4.90;;;4.50;;
10481;SDS011;5288;42.334;23.876;2023-09-18T09:45:26;6.30;;;5.30;;
10481;SDS011;5288;42.334;23.876;2023-09-18T09:47:55;8.30;;;5.10;;
10481;SDS011;5288;42.334;23.876;2023-09-18T09:50:23;7.17;;;5.47;;
10481;SDS011;5288;42.334;23.876;2023-09-18T09:52:51;7.53;;;5.70;;
10481;SDS011;5288;42.334;23.876;2023-09-18T09:55:22;8.87;;;5.77;;
10481;SDS011;5288;42.334;23.876;2023-09-18T09:57:51;7.37;;;5.63;;
10481;SDS011;5288;42.334;23.876;2023-09-18T10:00:22;7.33;;;5.90;;
10481;SDS011;5288;42.334;23.876;2023-09-18T10:02:58;6.80;;;6.10;;
10481;SDS011;5288;42.334;23.876;2023-09-18T10:05:28;8.27;;;5.70;;
10481;SDS011;5288;42.334;23.876;2023-09-18T10:07:58;7.60;;;5.60;;
10481;SDS011;5288;42.334;23.876;2023-09-18T10:10:30;6.60;;;5.30;;
10481;SDS011;5288;42.334;23.876;2023-09-18T10:13:09;8.30;;;5.53;;
10481;SDS011;5288;42.334;23.876;2023-09-18T10:15:38;11.07;;;6.20;;
10481;SDS011;5288;42.334;23.876;2023-09-18T10:18:16;6.77;;;6.17;;
10481;SDS011;5288;42.334;23.876;2023-09-18T10:20:46;7.13;;;5.67;;
10481;SDS011;5288;42.334;23.876;2023-09-18T10:23:20;6.97;;;6.27;;
10481;SDS011;5288;42.334;23.876;2023-09-18T10:26:01;9.40;;;6.83;;
10481;SDS011;5288;42.334;23.876;2023-09-18T10:28:30;7.07;;;5.87;;
10481;SDS011;5288;42.334;23.876;2023-09-18T10:30:59;6.20;;;5.60;;
10481;SDS011;5288;42.334;23.876;2023-09-18T10:33:28;8.93;;;6.27;;
10481;SDS011;5288;42.334;23.876;2023-09-18T10:35:56;8.23;;;6.30;;
10481;SDS011;5288;42.334;23.876;2023-09-18T10:38:26;7.27;;;6.13;;
10481;SDS011;5288;42.334;23.876;2023-09-18T10:40:54;9.77;;;6.40;;
10481;SDS011;5288;42.334;23.876;2023-09-18T10:43:25;10.10;;;6.23;;
10481;SDS011;5288;42.334;23.876;2023-09-18T10:45:52;6.70;;;6.00;;
10481;SDS011;5288;42.334;23.876;2023-09-18T10:48:20;5.77;;;5.10;;
10481;SDS011;5288;42.334;23.876;2023-09-18T10:50:49;5.67;;;5.17;;
10481;SDS011;5288;42.334;23.876;2023-09-18T10:53:18;6.87;;;5.17;;
10481;SDS011;5288;42.334;23.876;2023-09-18T10:55:46;6.10;;;5.07;;
10481;SDS011;5288;42.334;23.876;2023-09-18T10:58:22;12.70;;;6.70;;
10481;SDS011;5288;42.334;23.876;2023-09-18T11:00:52;12.33;;;5.77;;
10481;SDS011;5288;42.334;23.876;2023-09-18T11:03:23;6.97;;;5.23;;
10481;SDS011;5288;42.334;23.876;2023-09-18T11:06:01;6.37;;;4.83;;
10481;SDS011;5288;42.334;23.876;2023-09-18T11:08:30;6.53;;;5.17;;
10481;SDS011;5288;42.334;23.876;2023-09-18T11:10:59;7.00;;;5.73;;
10481;SDS011;5288;42.334;23.876;2023-09-18T11:13:35;7.73;;;5.43;;
10481;SDS011;5288;42.334;23.876;2023-09-18T11:16:15;15.50;;;6.53;;
10481;SDS011;5288;42.334;23.876;2023-09-18T11:18:50;5.10;;;4.53;;
10481;SDS011;5288;42.334;23.876;2023-09-18T11:21:17;8.30;;;5.30;;
10481;SDS011;5288;42.334;23.876;2023-09-18T11:23:57;6.53;;;4.90;;
10481;SDS011;5288;42.334;23.876;2023-09-18T11:26:28;5.43;;;5.00;;
10481;SDS011;5288;42.334;23.876;2023-09-18T11:28:56;7.07;;;5.10;;
10481;SDS011;5288;42.334;23.876;2023-09-18T11:31:43;5.60;;;5.10;;
10481;SDS011;5288;42.334;23.876;2023-09-18T11:34:13;5.07;;;4.57;;
10481;SDS011;5288;42.334;23.876;2023-09-18T11:36:41;6.88;;;4.70;;
10481;SDS011;5288;42.334;23.876;2023-09-18T11:39:08;5.10;;;4.70;;
10481;SDS011;5288;42.334;23.876;2023-09-18T11:41:37;6.30;;;5.00;;
10481;SDS011;5288;42.334;23.876;2023-09-18T11:47:03;5.50;;;4.65;;
10481;SDS011;5288;42.334;23.876;2023-09-18T11:49:37;5.25;;;4.75;;
10481;SDS011;5288;42.334;23.876;2023-09-18T11:52:08;13.40;;;5.88;;
10481;SDS011;5288;42.334;23.876;2023-09-18T11:54:36;5.05;;;4.65;;
10481;SDS011;5288;42.334;23.876;2023-09-18T11:57:06;5.82;;;4.38;;
10481;SDS011;5288;42.334;23.876;2023-09-18T11:59:33;6.30;;;4.72;;
10481;SDS011;5288;42.334;23.876;2023-09-18T12:02:03;5.53;;;4.22;;
10481;SDS011;5288;42.334;23.876;2023-09-18T12:04:33;6.70;;;6.10;;
10481;SDS011;5288;42.334;23.876;2023-09-18T12:07:00;5.05;;;4.35;;
10481;SDS011;5288;42.334;23.876;2023-09-18T12:09:29;17.33;;;6.07;;
10481;SDS011;5288;42.334;23.876;2023-09-18T12:11:57;4.35;;;3.55;;
10481;SDS011;5288;42.334;23.876;2023-09-18T12:14:30;6.00;;;3.88;;
10481;SDS011;5288;42.334;23.876;2023-09-18T12:16:59;7.20;;;4.53;;
10481;SDS011;5288;42.334;23.876;2023-09-18T12:19:29;5.05;;;4.30;;
10481;SDS011;5288;42.334;23.876;2023-09-18T12:21:59;4.32;;;3.92;;
10481;SDS011;5288;42.334;23.876;2023-09-18T12:24:26;6.88;;;4.32;;
10481;SDS011;5288;42.334;23.876;2023-09-18T12:26:54;5.68;;;4.15;;
10481;SDS011;5288;42.334;23.876;2023-09-18T12:29:23;4.55;;;4.13;;
10481;SDS011;5288;42.334;23.876;2023-09-18T12:31:50;4.15;;;3.75;;
10481;SDS011;5288;42.334;23.876;2023-09-18T12:34:18;6.47;;;4.10;;
10481;SDS011;5288;42.334;23.876;2023-09-18T12:36:49;6.05;;;4.35;;
10481;SDS011;5288;42.334;23.876;2023-09-18T12:39:16;4.00;;;3.60;;
10481;SDS011;5288;42.334;23.876;2023-09-18T12:41:44;5.57;;;3.55;;
10481;SDS011;5288;42.334;23.876;2023-09-18T12:44:11;5.93;;;3.50;;
10481;SDS011;5288;42.334;23.876;2023-09-18T12:46:39;4.43;;;3.70;;
10481;SDS011;5288;42.334;23.876;2023-09-18T12:49:19;4.50;;;4.05;;
10481;SDS011;5288;42.334;23.876;2023-09-18T12:51:56;8.75;;;4.50;;
10481;SDS011;5288;42.334;23.876;2023-09-18T12:57:06;11.40;;;4.60;;
10481;SDS011;5288;42.334;23.876;2023-09-18T12:59:34;5.15;;;3.60;;
10481;SDS011;5288;42.334;23.876;2023-09-18T13:02:03;9.00;;;4.18;;
10481;SDS011;5288;42.334;23.876;2023-09-18T13:04:31;18.45;;;4.88;;
10481;SDS011;5288;42.334;23.876;2023-09-18T13:07:11;3.92;;;3.53;;
10481;SDS011;5288;42.334;23.876;2023-09-18T13:09:39;10.93;;;5.10;;
10481;SDS011;5288;42.334;23.876;2023-09-18T13:12:07;4.32;;;3.90;;
10481;SDS011;5288;42.334;23.876;2023-09-18T13:17:24;7.05;;;4.40;;
10481;SDS011;5288;42.334;23.876;2023-09-18T13:19:51;5.32;;;4.13;;
10481;SDS011;5288;42.334;23.876;2023-09-18T13:22:23;6.07;;;4.38;;
10481;SDS011;5288;42.334;23.876;2023-09-18T13:24:55;4.53;;;4.13;;
10481;SDS011;5288;42.334;23.876;2023-09-18T13:27:22;6.70;;;5.00;;
10481;SDS011;5288;42.334;23.876;2023-09-18T13:29:49;5.60;;;4.40;;
10481;SDS011;5288;42.334;23.876;2023-09-18T13:32:18;5.18;;;4.60;;
10481;SDS011;5288;42.334;23.876;2023-09-18T13:34:45;10.55;;;5.22;;
10481;SDS011;5288;42.334;23.876;2023-09-18T13:37:12;5.40;;;4.60;;
10481;SDS011;5288;42.334;23.876;2023-09-18T13:39:44;8.75;;;4.88;;
10481;SDS011;5288;42.334;23.876;2023-09-18T13:42:11;5.75;;;4.50;;
10481;SDS011;5288;42.334;23.876;2023-09-18T13:44:38;5.25;;;4.55;;
10481;SDS011;5288;42.334;23.876;2023-09-18T13:47:05;5.10;;;4.32;;
10481;SDS011;5288;42.334;23.876;2023-09-18T13:49:32;6.28;;;4.13;;
10481;SDS011;5288;42.334;23.876;2023-09-18T13:51:59;7.43;;;4.80;;
10481;SDS011;5288;42.334;23.876;2023-09-18T13:54:26;4.88;;;4.30;;
10481;SDS011;5288;42.334;23.876;2023-09-18T13:56:56;29.55;;;26.52;;
10481;SDS011;5288;42.334;23.876;2023-09-18T13:59:24;6.00;;;5.07;;
10481;SDS011;5288;42.334;23.876;2023-09-18T14:01:51;5.45;;;4.35;;
10481;SDS011;5288;42.334;23.876;2023-09-18T14:04:18;8.40;;;5.40;;
10481;SDS011;5288;42.334;23.876;2023-09-18T14:06:47;4.85;;;4.07;;
10481;SDS011;5288;42.334;23.876;2023-09-18T14:09:14;6.22;;;4.40;;
10481;SDS011;5288;42.334;23.876;2023-09-18T14:11:42;9.10;;;4.70;;
10481;SDS011;5288;42.334;23.876;2023-09-18T14:14:11;5.30;;;4.00;;
10481;SDS011;5288;42.334;23.876;2023-09-18T14:16:38;6.03;;;4.95;;
10481;SDS011;5288;42.334;23.876;2023-09-18T14:19:05;4.63;;;4.25;;
10481;SDS011;5288;42.334;23.876;2023-09-18T14:21:36;5.73;;;5.13;;
10481;SDS011;5288;42.334;23.876;2023-09-18T14:24:04;7.93;;;4.43;;
10481;SDS011;5288;42.334;23.876;2023-09-18T14:26:32;6.57;;;4.60;;
10481;SDS011;5288;42.334;23.876;2023-09-18T14:29:05;5.63;;;4.93;;
10481;SDS011;5288;42.334;23.876;2023-09-18T14:31:34;5.90;;;4.63;;
10481;SDS011;5288;42.334;23.876;2023-09-18T14:34:02;5.40;;;4.07;;
10481;SDS011;5288;42.334;23.876;2023-09-18T14:36:30;5.10;;;4.57;;
10481;SDS011;5288;42.334;23.876;2023-09-18T14:38:58;5.40;;;4.63;;
10481;SDS011;5288;42.334;23.876;2023-09-18T14:41:26;7.67;;;4.67;;
10481;SDS011;5288;42.334;23.876;2023-09-18T14:43:53;5.00;;;4.40;;
10481;SDS011;5288;42.334;23.876;2023-09-18T14:46:22;12.17;;;10.53;;
10481;SDS011;5288;42.334;23.876;2023-09-18T14:48:51;7.30;;;4.40;;
10481;SDS011;5288;42.334;23.876;2023-09-18T14:51:18;5.97;;;4.57;;
10481;SDS011;5288;42.334;23.876;2023-09-18T14:53:45;22.00;;;7.63;;
10481;SDS011;5288;42.334;23.876;2023-09-18T14:56:12;5.00;;;4.50;;